createdAt,value
2023-01-08T00:00:24.790Z,246.95
2023-01-08T00:04:29.117Z,247.53
2023-01-08T00:08:33.053Z,246.60
2023-01-08T00:12:36.115Z,247.60
2023-01-08T00:16:39.198Z,247.77
2023-01-08T00:20:44.136Z,250.15
2023-01-08T00:24:47.181Z,250.20
2023-01-08T00:28:50.179Z,249.50
2023-01-08T00:32:53.142Z,249.70
2023-01-08T00:36:57.491Z,249.00
2023-01-08T00:41:00.487Z,247.80
2023-01-08T00:45:03.473Z,249.70
2023-01-08T00:49:06.440Z,248.80
2023-01-08T00:53:10.790Z,248.50
2023-01-08T00:57:13.827Z,244.30
2023-01-08T01:01:17.345Z,247.65
2023-01-08T01:05:20.817Z,246.90
2023-01-08T01:09:25.171Z,248.03
2023-01-08T01:13:28.191Z,247.20
2023-01-08T01:17:31.152Z,247.40
2023-01-08T01:21:34.601Z,247.27
2023-01-08T01:25:39.657Z,245.10
2023-01-08T01:29:42.731Z,251.60
2023-01-08T01:33:46.111Z,251.60
2023-01-08T01:37:49.068Z,252.30
2023-01-08T01:41:53.496Z,251.73
2023-01-08T01:45:56.528Z,254.55
2023-01-08T01:50:04.086Z,254.30
2023-01-08T01:54:10.427Z,253.47
2023-01-08T01:58:17.345Z,256.00
2023-01-08T02:02:22.804Z,255.90
2023-01-08T02:06:36.790Z,253.95
2023-01-08T02:10:49.469Z,254.95
2023-01-08T02:15:03.996Z,254.10
2023-01-08T02:19:21.142Z,252.85
2023-01-08T02:23:31.444Z,250.40
2023-01-08T02:27:39.022Z,254.75
2023-01-08T02:31:43.497Z,254.70
2023-01-08T02:35:52.867Z,251.50
2023-01-08T02:40:07.370Z,255.75
2023-01-08T02:44:18.754Z,255.53
2023-01-08T02:48:31.005Z,256.00
2023-01-08T02:52:37.750Z,255.90
2023-01-08T02:56:44.729Z,258.90
2023-01-08T03:00:49.949Z,262.40
2023-01-08T03:04:59.121Z,260.75
2023-01-08T03:09:02.656Z,259.17
2023-01-08T03:13:09.845Z,259.00
2023-01-08T03:17:20.677Z,258.45
2023-01-08T03:21:24.537Z,259.95
2023-01-08T03:25:30.932Z,259.85
2023-01-08T03:29:35.590Z,259.40
2023-01-08T03:33:40.300Z,260.30
2023-01-08T03:37:46.650Z,258.13
2023-01-08T03:41:50.568Z,260.50
2023-01-08T03:45:58.088Z,262.85
2023-01-08T03:50:06.612Z,257.95
2023-01-08T03:54:12.536Z,257.60
2023-01-08T03:58:15.497Z,257.00
2023-01-08T04:02:18.766Z,262.70
2023-01-08T04:06:23.248Z,261.05
2023-01-08T04:10:27.347Z,258.10
2023-01-08T04:14:30.324Z,261.90
2023-01-08T04:18:33.498Z,261.17
2023-01-08T04:22:37.806Z,260.10
2023-01-08T04:26:40.923Z,257.50
2023-01-08T04:30:43.949Z,258.60
2023-01-08T04:46:56.764Z,259.90
2023-01-08T04:51:00.350Z,260.90
2023-01-08T04:55:05.145Z,260.08
2023-01-08T04:59:08.160Z,261.90
2023-01-08T05:03:11.280Z,257.50
2023-01-08T05:07:14.373Z,259.45
2023-01-08T05:11:18.699Z,259.30
2023-01-08T05:15:21.724Z,259.95
2023-01-08T05:19:24.748Z,259.00
2023-01-08T05:23:27.756Z,259.90
2023-01-08T05:27:32.087Z,259.75
2023-01-08T05:31:35.055Z,257.10
2023-01-08T05:35:40.488Z,258.60
2023-01-08T05:39:43.477Z,259.55
2023-01-08T05:43:47.802Z,262.70
2023-01-08T05:47:50.954Z,263.83
2023-01-08T05:51:54.005Z,256.00
2023-01-08T05:56:00.710Z,256.10
2023-01-08T06:00:06.366Z,257.60
2023-01-08T06:04:09.717Z,256.53
2023-01-08T06:08:12.816Z,255.60
2023-01-08T06:12:15.795Z,255.05
2023-01-08T06:16:21.088Z,256.65
2023-01-08T06:20:24.150Z,257.70
2023-01-08T06:24:27.111Z,256.10
2023-01-08T06:28:30.088Z,255.70
2023-01-08T06:40:40.089Z,253.30
2023-01-08T06:44:43.029Z,254.80
2023-01-08T07:17:12.790Z,257.15
2023-01-08T07:21:17.363Z,260.37
2023-01-08T07:25:20.329Z,262.17
2023-01-08T07:29:23.355Z,261.40
2023-01-08T07:33:26.415Z,256.60
2023-01-08T07:37:30.830Z,256.40
2023-01-08T07:41:33.882Z,263.50
2023-01-08T07:45:36.947Z,259.50
2023-01-08T07:49:39.906Z,259.95
2023-01-08T07:53:44.366Z,258.30
2023-01-08T07:57:47.403Z,260.45
2023-01-08T08:01:50.509Z,263.73
2023-01-08T08:05:53.654Z,268.33
2023-01-08T08:09:57.982Z,265.83
2023-01-08T08:14:00.979Z,267.00
2023-01-08T08:18:04.276Z,264.30
2023-01-08T08:22:07.251Z,263.85
2023-01-08T08:26:11.580Z,264.85
2023-01-08T08:30:15.490Z,265.40
2023-01-08T08:34:20.377Z,265.47
2023-01-08T08:38:24.222Z,263.70
2023-01-08T08:42:28.685Z,265.10
2023-01-08T08:46:31.669Z,264.60
2023-01-08T08:50:34.721Z,262.70
2023-01-08T08:54:41.373Z,263.90
2023-01-08T08:58:46.281Z,259.85
2023-01-08T09:02:51.816Z,260.40
2023-01-08T09:06:54.851Z,263.90
2023-01-08T09:10:57.888Z,265.20
2023-01-08T09:15:02.265Z,262.45
2023-01-08T09:19:06.586Z,262.90
2023-01-08T09:23:10.443Z,261.90
2023-01-08T09:27:13.556Z,261.90
2023-01-08T09:31:17.952Z,264.45
2023-01-08T09:35:20.979Z,260.25
2023-01-08T09:39:24.027Z,261.85
2023-01-08T09:43:31.508Z,259.60
2023-01-08T09:47:40.037Z,260.60
2023-01-08T09:51:44.389Z,259.97
2023-01-08T09:56:08.595Z,260.85
2023-01-08T10:00:15.827Z,260.60
2023-01-08T10:04:22.908Z,262.87
2023-01-08T10:08:25.903Z,261.75
2023-01-08T10:12:30.929Z,263.55
2023-01-08T10:16:38.087Z,260.65
2023-01-08T10:20:42.457Z,263.55
2023-01-08T10:24:45.724Z,259.90
2023-01-08T10:28:48.672Z,256.90
2023-01-08T10:32:55.618Z,259.80
2023-01-08T10:37:00.033Z,259.07
2023-01-08T10:41:06.216Z,257.30
2023-01-08T10:45:18.448Z,258.90
2023-01-08T10:49:31.895Z,258.63
2023-01-08T10:53:36.248Z,259.53
2023-01-08T10:57:43.002Z,261.40
2023-01-08T11:01:48.687Z,265.70
2023-01-08T11:05:52.421Z,268.70
2023-01-08T12:06:52.212Z,10.70
2023-01-08T12:11:02.124Z,13.90
2023-01-08T12:15:11.899Z,10.15
2023-01-08T12:19:19.530Z,9.65
2023-01-08T12:23:30.322Z,8.45
2023-01-08T12:27:56.029Z,10.80
2023-01-08T12:32:10.612Z,11.10
2023-01-08T12:36:16.628Z,6.40
2023-01-08T12:40:24.108Z,13.40
2023-01-08T13:29:24.000Z,10.63
2023-01-08T13:33:39.681Z,14.75
2023-01-08T13:37:43.000Z,277.05
2023-01-08T13:41:47.525Z,278.37
2023-01-08T13:46:08.222Z,276.70
2023-01-08T13:50:20.659Z,273.90
2023-01-08T13:54:31.227Z,278.03
2023-01-08T13:58:37.321Z,276.20
2023-01-08T14:02:50.403Z,275.90
2023-01-08T14:06:53.675Z,275.40
2023-01-08T14:10:56.826Z,276.02
2023-01-08T14:15:00.498Z,275.73
2023-01-08T14:19:06.467Z,275.50
2023-01-08T14:23:13.123Z,276.30
2023-01-08T14:27:24.594Z,279.52
2023-01-08T14:31:28.869Z,270.30
2023-01-08T14:35:35.924Z,272.50
2023-01-08T14:39:39.304Z,269.00
2023-01-08T14:43:45.337Z,271.60
2023-01-08T14:47:50.332Z,270.08
2023-01-08T14:51:55.436Z,271.37
2023-01-08T14:55:58.914Z,273.40
2023-01-08T15:00:03.872Z,265.80
2023-01-08T15:04:10.518Z,265.70
2023-01-08T15:08:26.855Z,268.90
2023-01-08T15:12:32.400Z,269.37
2023-01-08T15:16:40.357Z,265.05
2023-01-08T15:20:46.164Z,267.50
2023-01-08T15:24:58.204Z,269.30
2023-01-08T15:29:02.858Z,267.90
2023-01-08T15:33:17.119Z,269.50
2023-01-08T15:37:20.414Z,266.80
2023-01-08T15:41:42.822Z,268.80
2023-01-08T15:45:47.727Z,265.60
2023-01-08T15:49:50.923Z,265.60
2023-01-08T15:53:54.238Z,268.00
2023-01-08T15:57:58.638Z,264.00
2023-01-08T16:02:02.001Z,263.97
2023-01-08T16:06:07.537Z,265.65
2023-01-08T16:10:11.400Z,267.05
2023-01-08T16:18:18.875Z,266.00
2023-01-08T16:22:21.833Z,267.50
2023-01-08T16:26:24.766Z,270.10
2023-01-08T16:30:29.121Z,267.80
2023-01-08T16:34:32.089Z,270.30
2023-01-08T16:38:35.773Z,270.35
2023-01-08T16:42:38.923Z,272.10
2023-01-08T16:46:43.237Z,273.30
2023-01-08T16:50:46.831Z,272.40
2023-01-08T16:54:49.908Z,270.87
2023-01-08T16:58:52.967Z,268.10
2023-01-08T17:02:57.350Z,268.90
2023-01-08T17:07:00.301Z,265.95
2023-01-08T17:11:08.272Z,266.10
2023-01-08T17:15:12.116Z,267.83
2023-01-08T17:19:17.475Z,264.90
2023-01-08T17:23:20.660Z,268.30
2023-01-08T17:27:23.727Z,270.98
2023-01-08T17:31:26.919Z,270.00
2023-01-08T17:35:31.422Z,266.60
2023-01-08T17:39:36.623Z,268.20
2023-01-08T17:43:40.380Z,266.10
2023-01-08T17:47:43.642Z,268.60
2023-01-08T17:51:47.973Z,268.25
2023-01-08T17:55:53.553Z,266.85
2023-01-08T18:03:59.387Z,267.20
2023-01-08T18:08:03.978Z,268.90
2023-01-08T18:16:12.662Z,266.50
2023-01-08T18:20:16.153Z,266.70
2023-01-08T18:24:20.614Z,266.90
2023-01-08T18:28:23.908Z,268.35
2023-01-08T18:52:42.632Z,262.70
2023-01-08T19:04:54.445Z,268.05
2023-01-08T19:08:58.601Z,266.70
2023-01-08T19:13:03.071Z,267.85
2023-01-08T19:17:06.845Z,266.55
2023-01-08T19:37:25.864Z,266.35
2023-01-08T19:45:50.460Z,267.10
2023-01-08T19:53:58.019Z,267.50
2023-01-08T20:22:23.247Z,271.70
2023-01-08T20:34:34.405Z,267.00
2023-01-08T20:46:44.686Z,271.30
2023-01-08T21:15:16.387Z,270.50
2023-01-08T21:43:59.416Z,272.00
2023-01-08T21:48:02.425Z,271.35
2023-01-08T21:52:23.985Z,273.95
2023-01-08T21:56:29.224Z,272.50
2023-01-08T22:08:38.526Z,271.50
2023-01-08T22:16:46.014Z,268.10
2023-01-08T22:20:49.044Z,274.70
2023-01-08T22:24:52.584Z,270.10
2023-01-08T22:41:11.447Z,270.70
2023-01-08T22:45:15.912Z,270.60
2023-01-08T22:49:19.199Z,272.80
2023-01-08T23:01:30.061Z,272.90
2023-01-08T23:05:33.503Z,274.15
2023-01-08T23:09:36.486Z,270.15
2023-01-08T23:13:40.228Z,268.13
2023-01-08T23:17:51.830Z,268.80
2023-01-08T23:21:55.634Z,265.50
2023-01-08T23:26:04.891Z,265.70
2023-01-08T23:30:08.656Z,267.90
2023-01-08T23:34:13.026Z,266.75
2023-01-08T23:38:16.191Z,270.40
2023-01-08T23:42:19.218Z,269.00
2023-01-08T23:46:22.208Z,268.80
2023-01-08T23:50:26.581Z,267.50
2023-01-08T23:54:29.621Z,264.00
2023-01-08T23:58:32.585Z,265.80
